Time;durP1;ratioP1;P1;durP2;ratioP2;P2;SDS_P1;SDS_P2;PMS_P1;PMS_P2;Temp;Humidity;BMP_temperature;BMP_pressure;BME280_temperature;BME280_humidity;BME280_pressure;Samples;Min_cycle;Max_cycle;Signal;HPM_P1;HPM_P2
2023/12/10 00:02:01;;;;;;;;;;;;;;;;;;5011594;28;19956;-48
2023/12/10 00:04:27;;;;;;;;;;;;;;;;;;4978598;28;19921;-49
2023/12/10 00:06:53;;;;;;;;;;;;;;;;;;5001843;28;19914;-52
2023/12/10 00:09:19;;;;;;;;;;;;;;;;;;4979654;28;20420;-50
2023/12/10 00:11:45;;;;;;;;;;;;;;;;;;5012750;28;19936;-53
2023/12/10 00:14:11;;;;;;;;;;;;;;;;;;4983014;28;19918;-52
2023/12/10 00:16:37;;;;;;;;;;;;;;;;;;5001687;28;19960;-52
2023/12/10 00:19:03;;;;;;;;;;;;;;;;;;5005409;28;20290;-49
2023/12/10 00:21:29;;;;;;;;;;;;;;;;;;4982202;28;19945;-48
2023/12/10 00:23:55;;;;;;;;;;;;;;;;;;4981959;28;19914;-49
2023/12/10 00:26:21;;;;;;;;;;;;;;;;;;5008385;28;19925;-48
2023/12/10 00:28:48;;;;;;;;;;;;;;;;;;5009821;28;19936;-48
2023/12/10 00:31:14;;;;;;;;;;;;;;;;;;4994216;28;20025;-47
2023/12/10 00:33:40;;;;;;;;;;;;;;;;;;4994170;28;19913;-47
2023/12/10 00:36:06;;;;;;;;;;;;;;;;;;4987011;28;20413;-47
2023/12/10 00:38:32;;;;;;;;;;;;;;;;;;5007637;28;20286;-48
2023/12/10 00:40:58;;;;;;;;;;;;;;;;;;4999429;28;19914;-47
2023/12/10 00:43:24;;;;;;;;;;;;;;;;;;4986786;28;19914;-47
2023/12/10 00:45:52;;;;;;;;;;;;;;;;;;4995079;28;19921;-48
2023/12/10 00:48:18;;;;;;;;;;;;;;;;;;5007656;28;19920;-49
2023/12/10 00:50:44;;;;;;;;;;;;;;;;;;5001083;28;19924;-48
2023/12/10 00:53:10;;;;;;;;;;;;;;;;;;5006700;28;20429;-48
2023/12/10 00:55:36;;;;;;;;;;;;;;;;;;5012486;28;19913;-48
2023/12/10 00:58:02;;;;;;;;;;;;;;;;;;5010776;28;19917;-48
2023/12/10 01:00:28;;;;;;;;;;;;;;;;;;5002556;28;19937;-49
2023/12/10 01:02:56;;;;;;;;;;;;;;;;;;4996739;28;19988;-47
2023/12/10 01:05:22;;;;;;;;;;;;;;;;;;4975306;28;19913;-48
2023/12/10 01:07:48;;;;;;;;;;;;;;;;;;5000878;28;19914;-48
2023/12/10 01:10:14;;;;;;;;;;;;;;;;;;5009179;28;19913;-48
2023/12/10 01:12:40;;;;;;;;;;;;;;;;;;4988987;28;20009;-48
2023/12/10 01:15:07;;;;;;;;;;;;;;;;;;5000660;28;20294;-48
2023/12/10 01:17:34;;;;;;;;;;;;;;;;;;5009494;28;19918;-48
2023/12/10 01:20:00;;;;;;;;;;;;;;;;;;5006322;28;19914;-49
2023/12/10 01:22:26;;;;;;;;;;;;;;;;;;4993736;28;19914;-47
2023/12/10 01:24:52;;;;;;;;;;;;;;;;;;5001978;28;20394;-49
2023/12/10 01:27:18;;;;;;;;;;;;;;;;;;5003965;28;20297;-48
2023/12/10 01:29:44;;;;;;;;;;;;;;;;;;4996750;28;19918;-48
2023/12/10 01:32:10;;;;;;;;;;;;;;;;;;4980192;28;19917;-49
2023/12/10 01:34:37;;;;;;;;;;;;;;;;;;5001736;28;19917;-50
2023/12/10 01:37:03;;;;;;;;;;;;;;;;;;5003576;28;20016;-49
2023/12/10 01:39:32;;;;;;;;;;;;;;;;;;4993544;28;19913;-48
2023/12/10 01:41:58;;;;;;;;;;;;;;;;;;4974713;28;19914;-48
2023/12/10 01:44:24;;;;;;;;;;;;;;;;;;5001145;28;19914;-48
2023/12/10 01:46:50;;;;;;;;;;;;;;;;;;4983841;28;19953;-48
2023/12/10 01:49:16;;;;;;;;;;;;;;;;;;4993504;28;19969;-50
2023/12/10 01:51:42;;;;;;;;;;;;;;;;;;5008213;28;19960;-48
2023/12/10 01:54:08;;;;;;;;;;;;;;;;;;4992259;28;19914;-49
2023/12/10 01:56:34;;;;;;;;;;;;;;;;;;5004285;28;19960;-48
2023/12/10 01:59:00;;;;;;;;;;;;;;;;;;4992282;28;19921;-52
2023/12/10 02:01:27;;;;;;;;;;;;;;;;;;5003583;28;19921;-51
2023/12/10 02:03:53;;;;;;;;;;;;;;;;;;5014883;28;19914;-52
2023/12/10 02:06:19;;;;;;;;;;;;;;;;;;5007467;28;19965;-49
2023/12/10 02:08:45;;;;;;;;;;;;;;;;;;5007086;28;20398;-49
2023/12/10 02:11:11;;;;;;;;;;;;;;;;;;5000118;28;19913;-48
2023/12/10 02:13:37;;;;;;;;;;;;;;;;;;5007214;28;19957;-50
2023/12/10 02:16:04;;;;;;;;;;;;;;;;;;5003744;28;20437;-48
2023/12/10 02:18:30;;;;;;;;;;;;;;;;;;5012845;28;20324;-48
2023/12/10 02:20:56;;;;;;;;;;;;;;;;;;4995584;28;20397;-51
2023/12/10 02:23:22;;;;;;;;;;;;;;;;;;4995456;28;20358;-49
2023/12/10 02:25:48;;;;;;;;;;;;;;;;;;5008437;28;20386;-51
2023/12/10 02:28:21;;;;;;;;;;;;;;;;;;5008860;28;19918;-48
2023/12/10 02:30:47;;;;;;;;;;;;;;;;;;5000015;28;19991;-49
2023/12/10 02:33:14;;;;;;;;;;;;;;;;;;5012800;28;19920;-49
2023/12/10 02:35:40;;;;;;;;;;;;;;;;;;4998933;28;20405;-49
2023/12/10 02:38:06;;;;;;;;;;;;;;;;;;5007166;28;19921;-51
2023/12/10 02:40:32;;;;;;;;;;;;;;;;;;4997731;28;19918;-52
2023/12/10 02:42:58;;;;;;;;;;;;;;;;;;5014624;28;19988;-47
2023/12/10 02:45:24;;;;;;;;;;;;;;;;;;4994320;28;19945;-50
2023/12/10 02:47:50;;;;;;;;;;;;;;;;;;4979775;28;20420;-50
2023/12/10 02:50:16;;;;;;;;;;;;;;;;;;5003859;28;20248;-49
2023/12/10 02:52:42;;;;;;;;;;;;;;;;;;5000040;28;19914;-48
2023/12/10 02:55:09;;;;;;;;;;;;;;;;;;5007144;28;19918;-48
2023/12/10 02:57:35;;;;;;;;;;;;;;;;;;4994874;28;19980;-52
2023/12/10 03:00:01;;;;;;;;;;;;;;;;;;5003284;28;19913;-49
2023/12/10 03:02:27;;;;;;;;;;;;;;;;;;5014311;28;19963;-53
2023/12/10 03:04:53;;;;;;;;;;;;;;;;;;4996899;28;19920;-49
2023/12/10 03:07:19;;;;;;;;;;;;;;;;;;5014276;28;19915;-52
2023/12/10 03:09:45;;;;;;;;;;;;;;;;;;5014411;28;20019;-52
2023/12/10 03:12:11;;;;;;;;;;;;;;;;;;5005028;28;19914;-53
2023/12/10 03:14:37;;;;;;;;;;;;;;;;;;4994630;28;20009;-50
2023/12/10 03:17:03;;;;;;;;;;;;;;;;;;4994421;28;19972;-48
2023/12/10 03:19:29;;;;;;;;;;;;;;;;;;4977127;28;19914;-48
2023/12/10 03:21:55;;;;;;;;;;;;;;;;;;4994404;28;19910;-52
2023/12/10 03:24:22;;;;;;;;;;;;;;;;;;4994258;28;20004;-49
2023/12/10 03:26:48;;;;;;;;;;;;;;;;;;4976761;28;20371;-49
2023/12/10 03:29:14;;;;;;;;;;;;;;;;;;4994481;28;19978;-47
2023/12/10 03:31:40;;;;;;;;;;;;;;;;;;4994521;28;20421;-51
2023/12/10 03:34:06;;;;;;;;;;;;;;;;;;4993550;28;20449;-48
2023/12/10 03:36:32;;;;;;;;;;;;;;;;;;4993314;28;19918;-47
2023/12/10 03:38:58;;;;;;;;;;;;;;;;;;4976754;28;20371;-49
2023/12/10 03:41:24;;;;;;;;;;;;;;;;;;4993929;28;19918;-49
2023/12/10 03:43:50;;;;;;;;;;;;;;;;;;4993843;28;19909;-49
2023/12/10 03:46:16;;;;;;;;;;;;;;;;;;4976413;28;20334;-49
2023/12/10 03:48:42;;;;;;;;;;;;;;;;;;5002483;28;19963;-48
2023/12/10 03:51:08;;;;;;;;;;;;;;;;;;5013520;28;19920;-50
2023/12/10 03:53:34;;;;;;;;;;;;;;;;;;5013252;28;19920;-48
2023/12/10 03:56:00;;;;;;;;;;;;;;;;;;5013283;28;19917;-49
2023/12/10 03:58:26;;;;;;;;;;;;;;;;;;5013272;28;19920;-49
2023/12/10 04:00:52;;;;;;;;;;;;;;;;;;5011396;28;19964;-49
2023/12/10 04:03:18;;;;;;;;;;;;;;;;;;4992673;28;19914;-48
2023/12/10 04:05:44;;;;;;;;;;;;;;;;;;5010018;28;19920;-48
2023/12/10 04:08:10;;;;;;;;;;;;;;;;;;4981428;28;20374;-48
2023/12/10 04:10:36;;;;;;;;;;;;;;;;;;4993626;28;19913;-51
2023/12/10 04:13:03;;;;;;;;;;;;;;;;;;5012745;28;19960;-50
2023/12/10 04:15:29;;;;;;;;;;;;;;;;;;5008530;28;20318;-48
2023/12/10 04:17:55;;;;;;;;;;;;;;;;;;4979219;28;19928;-51
2023/12/10 04:20:21;;;;;;;;;;;;;;;;;;4993289;28;19914;-48
2023/12/10 04:22:47;;;;;;;;;;;;;;;;;;4995079;28;20378;-50
2023/12/10 04:25:13;;;;;;;;;;;;;;;;;;4994555;28;19909;-51
2023/12/10 04:27:39;;;;;;;;;;;;;;;;;;5056082;22;19925;-51
2023/12/10 04:30:05;;;;;;;;;;;;;;;;;;5024020;28;19948;-50
2023/12/10 04:32:31;;;;;;;;;;;;;;;;;;5031083;28;19913;-51
2023/12/10 04:34:57;;;;;;;;;;;;;;;;;;5031408;28;19936;-51
2023/12/10 04:37:23;;;;;;;;;;;;;;;;;;5007514;28;19917;-51
2023/12/10 04:39:49;;;;;;;;;;;;;;;;;;5002746;28;19917;-53
2023/12/10 04:42:15;;;;;;;;;;;;;;;;;;4996973;28;19941;-50
2023/12/10 04:44:42;;;;;;;;;;;;;;;;;;4993087;28;19910;-53
2023/12/10 04:47:08;;;;;;;;;;;;;;;;;;4993985;28;19914;-50
2023/12/10 04:49:34;;;;;;;;;;;;;;;;;;4992944;28;19947;-50
2023/12/10 04:52:00;;;;;;;;;;;;;;;;;;5004783;28;20281;-51
2023/12/10 04:54:26;;;;;;;;;;;;;;;;;;5012254;28;19945;-50
2023/12/10 04:56:52;;;;;;;;;;;;;;;;;;5012021;28;19918;-50
2023/12/10 04:59:18;;;;;;;;;;;;;;;;;;5010440;28;19913;-50
2023/12/10 05:01:44;;;;;;;;;;;;;;;;;;5010841;28;19913;-49
2023/12/10 05:04:10;;;;;;;;;;;;;;;;;;4998124;28;20302;-55
2023/12/10 05:06:36;;;;;;;;;;;;;;;;;;5000431;28;19918;-50
2023/12/10 05:09:03;;;;;;;;;;;;;;;;;;5011077;28;19913;-50
2023/12/10 05:11:29;;;;;;;;;;;;;;;;;;5000073;28;19929;-49
2023/12/10 05:13:55;;;;;;;;;;;;;;;;;;4992803;28;20513;-50
2023/12/10 05:16:21;;;;;;;;;;;;;;;;;;4993626;28;19914;-50
2023/12/10 05:18:47;;;;;;;;;;;;;;;;;;4993023;28;20379;-50
2023/12/10 05:21:13;;;;;;;;;;;;;;;;;;5001152;28;19913;-52
2023/12/10 05:23:39;;;;;;;;;;;;;;;;;;5000117;28;20313;-50
2023/12/10 05:26:05;;;;;;;;;;;;;;;;;;4992559;28;19910;-54
2023/12/10 05:28:31;;;;;;;;;;;;;;;;;;4992469;28;19917;-54
2023/12/10 05:30:57;;;;;;;;;;;;;;;;;;4993688;28;19965;-52
2023/12/10 05:33:24;;;;;;;;;;;;;;;;;;4991083;28;19914;-53
2023/12/10 05:35:50;;;;;;;;;;;;;;;;;;4995157;28;19910;-56
2023/12/10 05:38:16;;;;;;;;;;;;;;;;;;4996166;28;20294;-53
2023/12/10 05:40:42;;;;;;;;;;;;;;;;;;4997363;28;20097;-54
2023/12/10 05:43:08;;;;;;;;;;;;;;;;;;4994770;28;20371;-50
2023/12/10 05:45:34;;;;;;;;;;;;;;;;;;4997402;28;19914;-51
2023/12/10 05:48:00;;;;;;;;;;;;;;;;;;4996107;28;20429;-51
2023/12/10 05:50:26;;;;;;;;;;;;;;;;;;5003286;28;19909;-50
2023/12/10 05:52:52;;;;;;;;;;;;;;;;;;5006068;28;19960;-49
2023/12/10 05:55:19;;;;;;;;;;;;;;;;;;4996111;28;19913;-53
2023/12/10 05:57:45;;;;;;;;;;;;;;;;;;4996117;28;19917;-50
2023/12/10 06:00:11;;;;;;;;;;;;;;;;;;5001231;28;20353;-49
2023/12/10 06:02:37;;;;;;;;;;;;;;;;;;5012069;28;19913;-51
2023/12/10 06:05:03;;;;;;;;;;;;;;;;;;5013967;28;20408;-49
2023/12/10 06:07:29;;;;;;;;;;;;;;;;;;5015388;28;19918;-50
2023/12/10 06:09:55;;;;;;;;;;;;;;;;;;5014746;28;19909;-50
2023/12/10 06:12:21;;;;;;;;;;;;;;;;;;5012493;28;20439;-50
2023/12/10 06:14:47;;;;;;;;;;;;;;;;;;5008336;28;20302;-50
2023/12/10 06:17:13;;;;;;;;;;;;;;;;;;5000258;28;20004;-51
2023/12/10 06:19:39;;;;;;;;;;;;;;;;;;5004506;28;19949;-51
2023/12/10 06:22:05;;;;;;;;;;;;;;;;;;5004827;28;19914;-51
2023/12/10 06:24:31;;;;;;;;;;;;;;;;;;5004436;28;19913;-49
2023/12/10 06:26:58;;;;;;;;;;;;;;;;;;5008832;28;19996;-51
2023/12/10 06:29:24;;;;;;;;;;;;;;;;;;4998394;28;19961;-50
2023/12/10 06:31:50;;;;;;;;;;;;;;;;;;5013545;28;19913;-52
2023/12/10 06:34:16;;;;;;;;;;;;;;;;;;4999297;28;19996;-53
2023/12/10 06:36:42;;;;;;;;;;;;;;;;;;4997517;28;20032;-50
2023/12/10 06:39:08;;;;;;;;;;;;;;;;;;5014995;28;19913;-50
2023/12/10 06:41:35;;;;;;;;;;;;;;;;;;5011400;28;19949;-50
2023/12/10 06:44:01;;;;;;;;;;;;;;;;;;4995258;28;20004;-50
2023/12/10 06:46:27;;;;;;;;;;;;;;;;;;4996107;28;19914;-49
2023/12/10 06:48:53;;;;;;;;;;;;;;;;;;5012670;28;20000;-49
2023/12/10 06:51:19;;;;;;;;;;;;;;;;;;5014797;28;20025;-49
2023/12/10 06:53:45;;;;;;;;;;;;;;;;;;5014522;28;20023;-50
2023/12/10 06:56:11;;;;;;;;;;;;;;;;;;5003706;28;20400;-53
2023/12/10 06:58:37;;;;;;;;;;;;;;;;;;4994872;28;19913;-49
2023/12/10 07:01:03;;;;;;;;;;;;;;;;;;4995321;28;19983;-48
2023/12/10 07:03:29;;;;;;;;;;;;;;;;;;4997354;28;19917;-46
2023/12/10 07:05:55;;;;;;;;;;;;;;;;;;4992803;28;20393;-50
2023/12/10 07:08:21;;;;;;;;;;;;;;;;;;4997401;28;20359;-50
2023/12/10 07:10:47;;;;;;;;;;;;;;;;;;5001557;28;20012;-47
2023/12/10 07:13:13;;;;;;;;;;;;;;;;;;4998046;28;19920;-47
2023/12/10 07:15:42;;;;;;;;;;;;;;;;;;4995813;28;19941;-50
2023/12/10 07:18:08;;;;;;;;;;;;;;;;;;5004233;28;19917;-49
2023/12/10 07:20:34;;;;;;;;;;;;;;;;;;4994503;28;20265;-49
2023/12/10 07:23:00;;;;;;;;;;;;;;;;;;4998333;28;20260;-49
2023/12/10 07:25:26;;;;;;;;;;;;;;;;;;4995517;28;19913;-49
2023/12/10 07:27:53;;;;;;;;;;;;;;;;;;4993091;28;19922;-50
2023/12/10 07:30:19;;;;;;;;;;;;;;;;;;5003270;28;20011;-49
2023/12/10 07:32:45;;;;;;;;;;;;;;;;;;4993411;28;19914;-48
2023/12/10 07:35:12;;;;;;;;;;;;;;;;;;4993923;28;20009;-48
2023/12/10 07:37:38;;;;;;;;;;;;;;;;;;4993674;28;19957;-48
2023/12/10 07:40:04;;;;;;;;;;;;;;;;;;4993719;28;19914;-49
2023/12/10 07:42:30;;;;;;;;;;;;;;;;;;4993684;28;19921;-51
2023/12/10 07:44:56;;;;;;;;;;;;;;;;;;4992608;28;19917;-49
2023/12/10 07:47:22;;;;;;;;;;;;;;;;;;4993468;28;19914;-49
2023/12/10 07:49:48;;;;;;;;;;;;;;;;;;4993824;28;19917;-48
2023/12/10 07:52:14;;;;;;;;;;;;;;;;;;4993692;28;19937;-47
2023/12/10 07:54:40;;;;;;;;;;;;;;;;;;4992639;28;20363;-50
2023/12/10 07:57:07;;;;;;;;;;;;;;;;;;4992314;28;19925;-49
2023/12/10 07:59:33;;;;;;;;;;;;;;;;;;4992609;28;19910;-50
2023/12/10 08:01:59;;;;;;;;;;;;;;;;;;4993742;28;19925;-50
2023/12/10 08:04:25;;;;;;;;;;;;;;;;;;4991807;28;19910;-49
2023/12/10 08:06:51;;;;;;;;;;;;;;;;;;4993475;28;19921;-50
2023/12/10 08:09:17;;;;;;;;;;;;;;;;;;4993241;28;19953;-52
2023/12/10 08:11:44;;;;;;;;;;;;;;;;;;4993647;28;19968;-48
2023/12/10 08:14:10;;;;;;;;;;;;;;;;;;4989859;28;19914;-49
2023/12/10 08:16:36;;;;;;;;;;;;;;;;;;4993357;28;19952;-56
2023/12/10 08:19:02;;;;;;;;;;;;;;;;;;4993156;28;19917;-49
2023/12/10 08:21:28;;;;;;;;;;;;;;;;;;4989282;28;19917;-45
2023/12/10 08:23:54;;;;;;;;;;;;;;;;;;4999473;28;20409;-46
2023/12/10 08:26:21;;;;;;;;;;;;;;;;;;5000530;28;20360;-47
2023/12/10 08:28:48;;;;;;;;;;;;;;;;;;5001363;28;19918;-46
2023/12/10 08:31:14;;;;;;;;;;;;;;;;;;4996741;28;19918;-50
2023/12/10 08:33:40;;;;;;;;;;;;;;;;;;4999797;28;20341;-48
2023/12/10 08:36:06;;;;;;;;;;;;;;;;;;4993649;28;19914;-49
2023/12/10 08:38:32;;;;;;;;;;;;;;;;;;4998671;28;19917;-49
2023/12/10 08:40:58;;;;;;;;;;;;;;;;;;5006963;28;19921;-49
2023/12/10 08:43:24;;;;;;;;;;;;;;;;;;5000546;28;19918;-49
2023/12/10 08:45:50;;;;;;;;;;;;;;;;;;4987935;28;20405;-49
2023/12/10 08:48:16;;;;;;;;;;;;;;;;;;4989785;28;19971;-49
2023/12/10 08:50:42;;;;;;;;;;;;;;;;;;5002097;28;19932;-50
2023/12/10 08:53:09;;;;;;;;;;;;;;;;;;5001046;28;19929;-49
2023/12/10 08:55:35;;;;;;;;;;;;;;;;;;4993182;28;19914;-50
2023/12/10 08:58:01;;;;;;;;;;;;;;;;;;5005365;28;19983;-49
2023/12/10 09:00:27;;;;;;;;;;;;;;;;;;4997742;28;19925;-49
2023/12/10 09:02:53;;;;;;;;;;;;;;;;;;5005096;28;20064;-48
2023/12/10 09:05:19;;;;;;;;;;;;;;;;;;4995050;28;20411;-48
2023/12/10 09:07:45;;;;;;;;;;;;;;;;;;4994385;28;19921;-49
2023/12/10 09:10:11;;;;;;;;;;;;;;;;;;5005707;28;19918;-52
2023/12/10 09:12:38;;;;;;;;;;;;;;;;;;5004676;28;19921;-49
2023/12/10 09:15:04;;;;;;;;;;;;;;;;;;5009209;28;19996;-52
2023/12/10 09:17:30;;;;;;;;;;;;;;;;;;4992962;28;19968;-49
2023/12/10 09:19:56;;;;;;;;;;;;;;;;;;4981195;28;19914;-49
2023/12/10 09:22:22;;;;;;;;;;;;;;;;;;4969770;28;19921;-49
2023/12/10 09:24:48;;;;;;;;;;;;;;;;;;4987935;28;19924;-48
2023/12/10 09:27:14;;;;;;;;;;;;;;;;;;4989981;28;20279;-47
2023/12/10 09:29:42;;;;;;;;;;;;;;;;;;4990911;28;19960;-50
2023/12/10 09:32:08;;;;;;;;;;;;;;;;;;4990920;28;19918;-47
2023/12/10 09:34:34;;;;;;;;;;;;;;;;;;4990834;28;19924;-48
2023/12/10 09:37:00;;;;;;;;;;;;;;;;;;4974313;28;19938;-48
2023/12/10 09:39:26;;;;;;;;;;;;;;;;;;4971662;28;19925;-49
2023/12/10 09:41:52;;;;;;;;;;;;;;;;;;4971797;28;19918;-50
2023/12/10 09:44:18;;;;;;;;;;;;;;;;;;4971706;28;20389;-48
2023/12/10 09:46:44;;;;;;;;;;;;;;;;;;4971417;28;19940;-47
2023/12/10 09:49:10;;;;;;;;;;;;;;;;;;4971365;28;19956;-47
2023/12/10 09:51:37;;;;;;;;;;;;;;;;;;4970355;28;19918;-47
2023/12/10 09:54:03;;;;;;;;;;;;;;;;;;4969974;28;19922;-48
2023/12/10 09:56:29;;;;;;;;;;;;;;;;;;4971150;28;19922;-50
2023/12/10 09:58:55;;;;;;;;;;;;;;;;;;4971296;28;19980;-48
2023/12/10 10:01:21;;;;;;;;;;;;;;;;;;4977118;28;19913;-47
2023/12/10 10:03:47;;;;;;;;;;;;;;;;;;4993017;28;19971;-48
2023/12/10 10:06:13;;;;;;;;;;;;;;;;;;5007073;28;19970;-48
2023/12/10 10:08:39;;;;;;;;;;;;;;;;;;4995191;28;20297;-49
2023/12/10 10:11:05;;;;;;;;;;;;;;;;;;4994259;28;20283;-48
2023/12/10 10:13:32;;;;;;;;;;;;;;;;;;4981284;28;19941;-50
2023/12/10 10:15:58;;;;;;;;;;;;;;;;;;4971312;28;19914;-49
2023/12/10 10:18:26;;;;;;;;;;;;;;;;;;4970948;28;19926;-50
2023/12/10 10:20:52;;;;;;;;;;;;;;;;;;4967843;28;19910;-47
2023/12/10 10:23:18;;;;;;;;;;;;;;;;;;4973048;28;19921;-48
2023/12/10 10:25:44;;;;;;;;;;;;;;;;;;4974414;28;19914;-49
2023/12/10 10:28:10;;;;;;;;;;;;;;;;;;5048986;23;19976;-49
2023/12/10 10:30:36;;;;;;;;;;;;;;;;;;5031204;28;19999;-48
2023/12/10 10:33:02;;;;;;;;;;;;;;;;;;5033146;28;19967;-49
2023/12/10 10:35:28;;;;;;;;;;;;;;;;;;5029542;28;19913;-49
2023/12/10 10:37:55;;;;;;;;;;;;;;;;;;5025880;28;19925;-49
2023/12/10 10:40:21;;;;;;;;;;;;;;;;;;5015312;28;19913;-48
2023/12/10 10:42:47;;;;;;;;;;;;;;;;;;5015911;28;19913;-49
2023/12/10 10:45:13;;;;;;;;;;;;;;;;;;5023864;28;19959;-48
2023/12/10 10:47:39;;;;;;;;;;;;;;;;;;5027452;28;19913;-48
2023/12/10 10:50:06;;;;;;;;;;;;;;;;;;5020332;28;20004;-50
2023/12/10 10:52:32;;;;;;;;;;;;;;;;;;5023644;28;19921;-48
2023/12/10 10:54:58;;;;;;;;;;;;;;;;;;5024187;28;19914;-49
2023/12/10 10:57:25;;;;;;;;;;;;;;;;;;5014673;28;20348;-49
2023/12/10 10:59:51;;;;;;;;;;;;;;;;;;5026562;28;20422;-50
2023/12/10 11:02:17;;;;;;;;;;;;;;;;;;5029518;28;20308;-50
2023/12/10 11:04:43;;;;;;;;;;;;;;;;;;5019788;28;19921;-51
2023/12/10 11:07:09;;;;;;;;;;;;;;;;;;5019853;28;20293;-48
2023/12/10 11:09:35;;;;;;;;;;;;;;;;;;5024756;28;19918;-52
2023/12/10 11:12:01;;;;;;;;;;;;;;;;;;5013704;28;19918;-52
2023/12/10 11:14:29;;;;;;;;;;;;;;;;;;5024142;28;20415;-51
2023/12/10 11:16:55;;;;;;;;;;;;;;;;;;5008393;28;20395;-48
2023/12/10 11:19:22;;;;;;;;;;;;;;;;;;5020257;28;19923;-48
2023/12/10 11:21:49;;;;;;;;;;;;;;;;;;5014075;28;19968;-50
2023/12/10 11:24:15;;;;;;;;;;;;;;;;;;5018370;28;19928;-48
2023/12/10 11:26:41;;;;;;;;;;;;;;;;;;5016550;28;19935;-50
2023/12/10 11:29:07;;;;;;;;;;;;;;;;;;5022553;28;19923;-48
2023/12/10 11:31:34;;;;;;;;;;;;;;;;;;5028976;28;20011;-48
2023/12/10 11:34:00;;;;;;;;;;;;;;;;;;5023092;28;19918;-51
2023/12/10 11:36:26;;;;;;;;;;;;;;;;;;5012214;28;19921;-49
2023/12/10 11:38:52;;;;;;;;;;;;;;;;;;5013337;28;19918;-48
2023/12/10 11:41:19;;;;;;;;;;;;;;;;;;5026711;28;19917;-48
2023/12/10 11:43:45;;;;;;;;;;;;;;;;;;5028478;28;20328;-49
2023/12/10 11:46:12;;;;;;;;;;;;;;;;;;5015770;28;20400;-49
2023/12/10 11:48:38;;;;;;;;;;;;;;;;;;5028365;28;20437;-48
2023/12/10 11:51:04;;;;;;;;;;;;;;;;;;5020143;28;19917;-49
2023/12/10 11:53:31;;;;;;;;;;;;;;;;;;5014195;28;19917;-48
2023/12/10 11:55:57;;;;;;;;;;;;;;;;;;5013185;28;19917;-47
2023/12/10 11:58:23;;;;;;;;;;;;;;;;;;5024600;28;19928;-47
2023/12/10 12:00:49;;;;;;;;;;;;;;;;;;5027696;28;19913;-48
2023/12/10 12:03:15;;;;;;;;;;;;;;;;;;5031257;28;20000;-50
2023/12/10 12:05:41;;;;;;;;;;;;;;;;;;5030186;28;19948;-49
2023/12/10 12:08:07;;;;;;;;;;;;;;;;;;5023889;28;20386;-49
2023/12/10 12:10:33;;;;;;;;;;;;;;;;;;5024944;28;20450;-48
2023/12/10 12:12:59;;;;;;;;;;;;;;;;;;5015367;28;20054;-47
2023/12/10 12:15:25;;;;;;;;;;;;;;;;;;5020671;28;20023;-48
2023/12/10 12:17:51;;;;;;;;;;;;;;;;;;5021536;28;19921;-47
2023/12/10 12:20:18;;;;;;;;;;;;;;;;;;5021732;28;20388;-49
2023/12/10 12:22:44;;;;;;;;;;;;;;;;;;5022851;28;20324;-50
2023/12/10 12:25:10;;;;;;;;;;;;;;;;;;5018047;28;19917;-49
2023/12/10 12:27:36;;;;;;;;;;;;;;;;;;5027874;28;19921;-50
2023/12/10 12:30:02;;;;;;;;;;;;;;;;;;5017587;28;20397;-50
2023/12/10 12:32:28;;;;;;;;;;;;;;;;;;5013741;28;19921;-49
2023/12/10 12:34:54;;;;;;;;;;;;;;;;;;5011432;28;19913;-49
2023/12/10 12:37:20;;;;;;;;;;;;;;;;;;4998821;28;19959;-49
2023/12/10 12:39:46;;;;;;;;;;;;;;;;;;5019618;28;19924;-50
2023/12/10 12:42:12;;;;;;;;;;;;;;;;;;4998871;28;20349;-47
2023/12/10 12:44:38;;;;;;;;;;;;;;;;;;4993799;28;19918;-49
2023/12/10 12:47:05;;;;;;;;;;;;;;;;;;5003611;28;20407;-49
2023/12/10 12:49:31;;;;;;;;;;;;;;;;;;5014857;28;19976;-50
2023/12/10 12:51:57;;;;;;;;;;;;;;;;;;5000916;28;19917;-53
2023/12/10 12:54:23;;;;;;;;;;;;;;;;;;5004705;28;19922;-48
2023/12/10 12:56:49;;;;;;;;;;;;;;;;;;5003388;28;20318;-48
2023/12/10 12:59:15;;;;;;;;;;;;;;;;;;5003852;28;20374;-49
2023/12/10 13:01:41;;;;;;;;;;;;;;;;;;5011112;28;19921;-49
2023/12/10 13:04:07;;;;;;;;;;;;;;;;;;5006006;28;19964;-52
2023/12/10 13:06:33;;;;;;;;;;;;;;;;;;5010267;28;19972;-52
2023/12/10 13:08:59;;;;;;;;;;;;;;;;;;5011925;28;20312;-48
2023/12/10 13:11:25;;;;;;;;;;;;;;;;;;5019619;28;19924;-48
2023/12/10 13:13:52;;;;;;;;;;;;;;;;;;5029851;28;19920;-49
2023/12/10 13:16:19;;;;;;;;;;;;;;;;;;5020751;28;20398;-51
2023/12/10 13:18:45;;;;;;;;;;;;;;;;;;5022063;28;19913;-48
2023/12/10 13:21:11;;;;;;;;;;;;;;;;;;5008736;28;19913;-49
2023/12/10 13:23:38;;;;;;;;;;;;;;;;;;5021101;28;19913;-49
2023/12/10 13:26:04;;;;;;;;;;;;;;;;;;5011101;28;20003;-48
2023/12/10 13:28:30;;;;;;;;;;;;;;;;;;5016261;28;20266;-50
2023/12/10 13:30:57;;;;;;;;;;;;;;;;;;5019210;28;19913;-49
2023/12/10 13:33:23;;;;;;;;;;;;;;;;;;5010653;28;19926;-49
2023/12/10 13:35:52;;;;;;;;;;;;;;;;;;5011852;28;19972;-52
2023/12/10 13:38:18;;;;;;;;;;;;;;;;;;4992975;28;19986;-48
2023/12/10 13:40:44;;;;;;;;;;;;;;;;;;5014345;28;19960;-49
2023/12/10 13:43:11;;;;;;;;;;;;;;;;;;5030139;28;20560;-49
2023/12/10 13:45:37;;;;;;;;;;;;;;;;;;5017679;28;19913;-48
2023/12/10 13:48:03;;;;;;;;;;;;;;;;;;5015518;28;19971;-48
2023/12/10 13:50:29;;;;;;;;;;;;;;;;;;5027403;28;19919;-50
2023/12/10 13:52:56;;;;;;;;;;;;;;;;;;5024743;28;20293;-50
2023/12/10 13:55:22;;;;;;;;;;;;;;;;;;5021664;28;20403;-50
2023/12/10 13:57:48;;;;;;;;;;;;;;;;;;5031733;28;20449;-50
2023/12/10 14:00:14;;;;;;;;;;;;;;;;;;5024452;28;20036;-48
2023/12/10 14:02:40;;;;;;;;;;;;;;;;;;5033850;28;19921;-48
2023/12/10 14:05:11;;;;;;;;;;;;;;;;;;5033330;28;19917;-51
2023/12/10 14:07:37;;;;;;;;;;;;;;;;;;5018248;28;19913;-48
2023/12/10 14:10:04;;;;;;;;;;;;;;;;;;5016369;28;19909;-50
2023/12/10 14:12:30;;;;;;;;;;;;;;;;;;5031335;28;20301;-49
2023/12/10 14:14:56;;;;;;;;;;;;;;;;;;5030820;28;19913;-48
2023/12/10 14:17:22;;;;;;;;;;;;;;;;;;5033467;28;19963;-49
2023/12/10 14:19:48;;;;;;;;;;;;;;;;;;5033660;28;20024;-49
2023/12/10 14:22:14;;;;;;;;;;;;;;;;;;5031282;28;20420;-50
2023/12/10 14:24:40;;;;;;;;;;;;;;;;;;5018349;28;19916;-48
2023/12/10 14:27:06;;;;;;;;;;;;;;;;;;5013521;28;20366;-48
2023/12/10 14:29:32;;;;;;;;;;;;;;;;;;5020722;28;19955;-50
2023/12/10 14:31:58;;;;;;;;;;;;;;;;;;5033616;28;19945;-50
2023/12/10 14:34:24;;;;;;;;;;;;;;;;;;5033359;28;19939;-52
2023/12/10 14:36:50;;;;;;;;;;;;;;;;;;5033211;28;20015;-49
2023/12/10 14:39:16;;;;;;;;;;;;;;;;;;5032038;28;20002;-49
2023/12/10 14:41:43;;;;;;;;;;;;;;;;;;5026610;28;19922;-49
2023/12/10 14:44:09;;;;;;;;;;;;;;;;;;5025399;28;19918;-52
2023/12/10 14:46:35;;;;;;;;;;;;;;;;;;4999205;28;19924;-52
2023/12/10 14:49:01;;;;;;;;;;;;;;;;;;5022886;28;19918;-53
2023/12/10 14:51:27;;;;;;;;;;;;;;;;;;5013234;28;20381;-52
2023/12/10 14:53:53;;;;;;;;;;;;;;;;;;5012423;28;20274;-52
2023/12/10 14:56:19;;;;;;;;;;;;;;;;;;4993583;28;19963;-53
2023/12/10 14:58:45;;;;;;;;;;;;;;;;;;5000121;28;19917;-49
2023/12/10 15:01:11;;;;;;;;;;;;;;;;;;5013287;28;20290;-52
2023/12/10 15:03:37;;;;;;;;;;;;;;;;;;5013028;28;19960;-51
2023/12/10 15:06:04;;;;;;;;;;;;;;;;;;5012748;28;20340;-47
2023/12/10 15:08:34;;;;;;;;;;;;;;;;;;5010875;28;19913;-48
2023/12/10 15:11:00;;;;;;;;;;;;;;;;;;5004364;28;19972;-49
2023/12/10 15:13:26;;;;;;;;;;;;;;;;;;4990854;28;19914;-49
2023/12/10 15:15:53;;;;;;;;;;;;;;;;;;4993210;28;20040;-49
2023/12/10 15:18:19;;;;;;;;;;;;;;;;;;4995472;28;20413;-50
2023/12/10 15:20:45;;;;;;;;;;;;;;;;;;5004072;28;19913;-51
2023/12/10 15:23:11;;;;;;;;;;;;;;;;;;5024343;28;19972;-48
2023/12/10 15:25:37;;;;;;;;;;;;;;;;;;5016413;28;19924;-48
2023/12/10 15:28:03;;;;;;;;;;;;;;;;;;5025525;28;20449;-49
2023/12/10 15:30:29;;;;;;;;;;;;;;;;;;5001946;28;19943;-50
2023/12/10 15:32:55;;;;;;;;;;;;;;;;;;5021799;28;20310;-49
2023/12/10 15:35:21;;;;;;;;;;;;;;;;;;5011082;28;19918;-50
2023/12/10 15:37:47;;;;;;;;;;;;;;;;;;5026797;28;19990;-50
2023/12/10 15:40:13;;;;;;;;;;;;;;;;;;5017644;28;20302;-48
2023/12/10 15:42:43;;;;;;;;;;;;;;;;;;5022820;28;20298;-49
2023/12/10 15:45:11;;;;;;;;;;;;;;;;;;5011204;28;19918;-50
2023/12/10 15:47:38;;;;;;;;;;;;;;;;;;5013342;28;19918;-47
2023/12/10 15:50:04;;;;;;;;;;;;;;;;;;5020029;28;20263;-45
2023/12/10 15:52:30;;;;;;;;;;;;;;;;;;5021416;28;19980;-47
2023/12/10 15:54:56;;;;;;;;;;;;;;;;;;5010406;28;19917;-46
2023/12/10 15:57:22;;;;;;;;;;;;;;;;;;5016544;28;20004;-49
2023/12/10 15:59:48;;;;;;;;;;;;;;;;;;5015749;28;20080;-51
2023/12/10 16:02:14;;;;;;;;;;;;;;;;;;5016726;28;20292;-50
2023/12/10 16:04:40;;;;;;;;;;;;;;;;;;5011955;28;19965;-52
2023/12/10 16:07:06;;;;;;;;;;;;;;;;;;5010610;28;20404;-49
2023/12/10 16:09:32;;;;;;;;;;;;;;;;;;5022837;28;20284;-49
2023/12/10 16:11:58;;;;;;;;;;;;;;;;;;5011657;28;19913;-49
2023/12/10 16:14:24;;;;;;;;;;;;;;;;;;5021601;28;19977;-49
2023/12/10 16:16:50;;;;;;;;;;;;;;;;;;5010933;28;20310;-49
2023/12/10 16:19:16;;;;;;;;;;;;;;;;;;5010832;28;20052;-48
2023/12/10 16:21:42;;;;;;;;;;;;;;;;;;5015287;28;19967;-48
2023/12/10 16:24:08;;;;;;;;;;;;;;;;;;5014749;28;19964;-51
2023/12/10 16:26:35;;;;;;;;;;;;;;;;;;5016506;28;19913;-49
2023/12/10 16:29:01;;;;;;;;;;;;;;;;;;5024451;23;19925;-51
2023/12/10 16:31:28;;;;;;;;;;;;;;;;;;5013296;28;19923;-50
2023/12/10 16:33:54;;;;;;;;;;;;;;;;;;5014560;28;20305;-51
2023/12/10 16:36:20;;;;;;;;;;;;;;;;;;5012250;28;20353;-50
2023/12/10 16:38:46;;;;;;;;;;;;;;;;;;5001313;28;20341;-49